Date,TemperatureHighF,TemperatureAvgF,TemperatureLowF,DewpointHighF,DewpointAvgF,DewpointLowF,HumidityHigh,HumidityAvg,HumidityLow,PressureMaxIn,PressureMinIn,WindSpeedMaxMPH,WindSpeedAvgMPH,GustSpeedMaxMPH,PrecipitationSumIn
2013-12-1,63,41,30,41,34,28,99,78,39,29.85,29.51,6,2,6,0.00
2013-12-2,69,44,34,42,37,33,99,78,29,29.52,29.32,8,2,8,0.00
2013-12-3,62,49,35,46,42,35,99,77,47,29.50,29.35,16,2,16,0.00
2013-12-4,67,55,50,58,52,45,97,89,68,29.57,29.49,4,2,4,0.05
2013-12-5,67,62,56,63,60,55,99,94,83,29.62,29.51,23,4,23,0.00
2013-12-6,77,70,65,64,62,61,93,77,60,29.55,29.43,30,12,30,0.00
2013-12-7,69,46,40,62,40,28,99,80,61,29.97,29.50,13,4,13,0.43
2013-12-8,40,35,34,33,30,24,95,82,60,29.98,29.77,12,3,12,0.20
2013-12-9,47,40,34,46,39,33,99,97,95,29.78,29.55,8,3,8,0.37
2013-12-10,47,41,31,46,40,27,99,94,74,29.80,29.43,11,2,11,0.53
2013-12-11,51,38,28,31,26,20,89,64,32,29.93,28.28,11,4,11,0.00
2013-12-12,49,37,29,27,20,4,76,52,24,29.91,29.74,10,3,10,0.00
2013-12-13,55,38,26,32,22,15,76,54,23,29.86,29.74,14,4,14,0.00
2013-12-14,47,42,39,42,35,26,99,77,53,29.80,29.24,16,4,16,0.93
2013-12-15,59,45,38,43,36,26,99,75,43,29.52,29.16,17,5,17,0.04
2013-12-16,61,43,33,36,31,26,82,63,32,29.65,29.51,11,4,11,0.00
2013-12-17,62,47,35,41,37,32,93,70,39,29.60,29.32,14,4,14,0.01
2013-12-18,50,40,33,40,26,20,98,60,33,29.76,29.48,14,4,14,0.00
2013-12-19,62,47,33,34,26,19,73,45,24,29.79,29.68,20,5,20,0.00
2013-12-20,68,55,44,54,46,31,87,71,51,29.72,29.58,23,6,23,0.00
2013-12-21,72,62,50,64,55,47,93,79,61,29.63,29.52,21,6,21,0.00
2013-12-22,78,70,62,67,63,57,93,80,60,29.59,29.50,29,11,29,0.07
2013-12-23,68,62,46,66,60,45,99,95,85,29.65,29.46,17,6,17,1.00
2013-12-24,53,42,29,45,27,10,97,58,40,29.93,29.63,11,3,11,0.01
2013-12-25,49,31,22,20,13,8,65,46,25,30.06,29.88,14,3,14,0.00
2013-12-26,56,36,25,30,25,16,93,66,28,29.89,29.70,9,3,9,0.00
2013-12-27,59,40,30,32,27,20,92,65,26,29.94,29.83,5,2,5,0.00
2013-12-28,61,45,30,40,29,23,93,59,24,29.87,29.65,12,3,12,0.01
2013-12-29,64,50,44,63,47,36,99,92,61,29.66,29.09,29,6,29,1.23
2013-12-30,55,46,40,46,40,36,99,82,58,29.62,29.39,8,2,8,0.01
2013-12-31,53,43,34,39,31,20,92,66,28,29.82,29.59,13,4,16,0.00